createdAt,value
2022-08-26T00:01:53.787Z,19.03
2022-08-26T00:04:22.101Z,18.97
2022-08-26T00:06:49.042Z,18.97
2022-08-26T00:09:16.157Z,18.88
2022-08-26T00:11:45.380Z,18.91
2022-08-26T00:14:13.944Z,18.86
2022-08-26T00:16:47.089Z,18.86
2022-08-26T00:19:15.312Z,18.83
2022-08-26T00:21:42.049Z,18.82
2022-08-26T00:24:08.865Z,18.82
2022-08-26T00:26:36.245Z,18.78
2022-08-26T00:29:03.097Z,18.80
2022-08-26T00:31:32.005Z,18.76
2022-08-26T00:33:59.200Z,18.74
2022-08-26T00:36:29.702Z,18.73
2022-08-26T00:38:57.697Z,18.72
2022-08-26T00:41:24.424Z,18.73
2022-08-26T00:43:51.456Z,18.67
2022-08-26T00:46:25.795Z,18.66
2022-08-26T00:48:58.189Z,18.67
2022-08-26T00:51:29.868Z,18.63
2022-08-26T00:54:06.602Z,18.57
2022-08-26T00:56:43.579Z,18.55
2022-08-26T00:59:13.154Z,18.53
2022-08-26T01:01:42.575Z,18.52
2022-08-26T01:04:15.672Z,18.55
2022-08-26T01:06:42.654Z,18.48
2022-08-26T01:09:11.870Z,18.38
2022-08-26T01:11:39.235Z,18.26
2022-08-26T01:14:07.058Z,18.20
2022-08-26T01:16:35.626Z,18.18
2022-08-26T01:19:28.756Z,18.18
2022-08-26T01:22:05.334Z,18.06
2022-08-26T01:24:32.314Z,18.06
2022-08-26T01:27:06.657Z,18.12
2022-08-26T01:29:38.108Z,18.12
2022-08-26T01:32:07.081Z,18.13
2022-08-26T01:34:37.549Z,18.10
2022-08-26T01:37:15.605Z,18.10
2022-08-26T01:39:44.369Z,18.08
2022-08-26T01:42:14.662Z,18.11
2022-08-26T01:44:46.247Z,18.06
2022-08-26T01:47:17.991Z,18.11
2022-08-26T01:49:48.279Z,18.08
2022-08-26T01:52:23.493Z,18.17
2022-08-26T01:54:57.414Z,18.10
2022-08-26T01:57:25.384Z,18.02
2022-08-26T01:59:56.329Z,18.13
2022-08-26T02:02:24.594Z,18.16
2022-08-26T02:04:58.387Z,18.14
2022-08-26T02:07:26.851Z,18.17
2022-08-26T02:09:54.688Z,18.13
2022-08-26T02:12:21.582Z,18.06
2022-08-26T02:15:05.731Z,17.98
2022-08-26T02:17:37.886Z,17.87
2022-08-26T02:20:06.506Z,17.90
2022-08-26T02:22:41.355Z,17.93
2022-08-26T02:25:25.170Z,17.88
2022-08-26T02:27:52.858Z,17.90
2022-08-26T02:30:24.328Z,17.91
2022-08-26T02:32:53.186Z,17.94
2022-08-26T02:35:22.393Z,17.88
2022-08-26T02:37:50.441Z,17.92
2022-08-26T02:40:21.572Z,17.80
2022-08-26T02:42:48.901Z,17.89
2022-08-26T02:45:16.758Z,17.87
2022-08-26T02:47:51.621Z,17.89
2022-08-26T02:50:19.783Z,17.81
2022-08-26T02:52:46.554Z,17.79
2022-08-26T02:55:13.247Z,17.81
2022-08-26T02:57:39.929Z,17.88
2022-08-26T03:00:09.165Z,17.89
2022-08-26T03:02:35.817Z,17.86
2022-08-26T03:05:02.976Z,17.84
2022-08-26T03:07:30.376Z,17.85
2022-08-26T03:09:58.769Z,17.79
2022-08-26T03:12:25.786Z,17.74
2022-08-26T03:14:52.954Z,17.75
2022-08-26T03:17:19.645Z,17.82
2022-08-26T03:19:46.314Z,17.81
2022-08-26T03:22:14.527Z,17.74
2022-08-26T03:24:46.053Z,17.69
2022-08-26T03:27:13.387Z,17.70
2022-08-26T03:30:00.226Z,17.73
2022-08-26T03:32:28.098Z,17.75
2022-08-26T03:34:56.517Z,17.78
2022-08-26T03:37:23.458Z,17.82
2022-08-26T03:39:50.277Z,17.74
2022-08-26T03:42:17.732Z,17.84
2022-08-26T03:44:48.897Z,17.80
2022-08-26T03:47:15.914Z,17.75
2022-08-26T03:49:42.970Z,17.73
2022-08-26T03:52:10.602Z,17.75
2022-08-26T03:54:37.451Z,17.80
2022-08-26T03:57:04.381Z,17.77
2022-08-26T03:59:31.923Z,17.80
2022-08-26T04:01:58.793Z,17.74
2022-08-26T04:04:25.887Z,17.70
2022-08-26T04:06:59.592Z,17.77
2022-08-26T04:09:27.665Z,17.75
2022-08-26T04:11:55.634Z,17.73
2022-08-26T04:14:26.191Z,17.77
2022-08-26T04:16:55.474Z,17.69
2022-08-26T04:19:23.821Z,17.68
2022-08-26T04:21:53.304Z,17.64
2022-08-26T04:24:22.682Z,17.65
2022-08-26T04:26:49.779Z,17.60
2022-08-26T04:29:19.636Z,17.60
2022-08-26T04:31:50.242Z,17.60
2022-08-26T04:34:24.274Z,17.52
2022-08-26T04:36:54.050Z,17.49
2022-08-26T04:39:20.861Z,17.45
2022-08-26T04:41:48.682Z,17.42
2022-08-26T04:44:18.049Z,17.47
2022-08-26T04:46:44.864Z,17.43
2022-08-26T04:49:11.968Z,17.43
2022-08-26T04:51:38.833Z,17.53
2022-08-26T04:54:07.213Z,17.56
2022-08-26T04:56:40.271Z,17.62
2022-08-26T04:59:16.859Z,17.64
2022-08-26T05:01:49.681Z,17.68
2022-08-26T05:04:18.851Z,17.67
2022-08-26T05:06:46.962Z,17.66
2022-08-26T05:09:15.306Z,17.66
2022-08-26T05:11:42.190Z,17.67
2022-08-26T05:14:09.725Z,17.67
2022-08-26T05:16:36.709Z,17.74
2022-08-26T05:19:03.687Z,17.75
2022-08-26T05:21:31.379Z,17.74
2022-08-26T05:23:58.512Z,17.81
2022-08-26T05:26:28.418Z,17.87
2022-08-26T05:28:56.703Z,17.92
2022-08-26T05:31:26.691Z,18.02
2022-08-26T05:33:53.933Z,18.19
2022-08-26T05:36:23.120Z,18.36
2022-08-26T05:38:50.128Z,18.59
2022-08-26T05:41:18.603Z,18.92
2022-08-26T05:43:45.761Z,19.10
2022-08-26T05:46:13.477Z,19.17
2022-08-26T05:48:44.213Z,19.03
2022-08-26T05:51:12.632Z,19.22
2022-08-26T05:53:40.979Z,19.23
2022-08-26T05:56:12.059Z,19.37
2022-08-26T05:58:40.636Z,19.55
2022-08-26T06:01:12.372Z,19.76
2022-08-26T06:03:42.631Z,19.96
2022-08-26T06:06:15.669Z,20.20
2022-08-26T06:08:47.453Z,20.40
2022-08-26T06:11:19.079Z,20.45
2022-08-26T06:13:46.867Z,20.47
2022-08-26T06:16:17.931Z,20.40
2022-08-26T06:18:46.565Z,20.45
2022-08-26T06:21:19.242Z,20.75
2022-08-26T06:24:06.723Z,20.98
2022-08-26T06:26:35.705Z,20.98
2022-08-26T06:29:05.399Z,21.10
2022-08-26T06:31:34.779Z,21.04
2022-08-26T06:34:03.701Z,21.23
2022-08-26T06:36:34.929Z,21.49
2022-08-26T06:39:10.132Z,21.52
2022-08-26T06:41:42.775Z,21.60
2022-08-26T06:44:16.961Z,21.73
2022-08-26T06:46:44.270Z,21.74
2022-08-26T06:49:12.530Z,21.69
2022-08-26T06:51:40.944Z,21.67
2022-08-26T06:54:08.866Z,21.87
2022-08-26T06:56:42.839Z,22.05
2022-08-26T06:59:11.414Z,22.42
2022-08-26T07:01:44.931Z,22.65
2022-08-26T07:04:15.617Z,22.64
2022-08-26T07:06:52.373Z,22.38
2022-08-26T07:09:24.790Z,22.79
2022-08-26T07:11:52.794Z,22.89
2022-08-26T07:14:21.481Z,23.32
2022-08-26T07:16:50.476Z,23.65
2022-08-26T07:19:18.995Z,23.49
2022-08-26T07:21:57.535Z,23.22
2022-08-26T07:24:24.299Z,23.40
2022-08-26T07:26:59.543Z,23.65
2022-08-26T07:29:26.307Z,23.92
2022-08-26T07:31:53.605Z,24.18
2022-08-26T07:34:24.162Z,24.32
2022-08-26T07:36:55.277Z,24.66
2022-08-26T07:39:22.557Z,24.66
2022-08-26T07:41:49.637Z,25.10
2022-08-26T07:44:16.778Z,24.63
2022-08-26T07:46:44.229Z,24.36
2022-08-26T07:49:13.673Z,24.65
2022-08-26T07:51:41.467Z,24.84
2022-08-26T07:54:08.177Z,25.42
2022-08-26T07:56:35.379Z,25.65
2022-08-26T07:59:04.003Z,25.73
2022-08-26T08:01:41.456Z,25.68
2022-08-26T08:04:14.109Z,25.62
2022-08-26T08:06:41.787Z,25.18
2022-08-26T08:09:12.400Z,25.40
2022-08-26T08:11:39.222Z,25.52
2022-08-26T08:14:08.565Z,25.78
2022-08-26T08:16:37.259Z,26.06
2022-08-26T08:19:05.852Z,26.36
2022-08-26T08:21:32.611Z,26.43
2022-08-26T08:23:59.897Z,26.55
2022-08-26T08:26:27.208Z,26.53
2022-08-26T08:28:55.825Z,26.45
2022-08-26T08:31:56.157Z,26.70
2022-08-26T08:34:19.316Z,27.21
2022-08-26T08:36:48.741Z,27.59
2022-08-26T08:39:17.186Z,27.67
2022-08-26T08:42:06.037Z,27.23
2022-08-26T08:44:33.823Z,27.22
2022-08-26T08:47:20.759Z,27.21
2022-08-26T08:49:48.098Z,27.15
2022-08-26T08:52:25.540Z,27.41
2022-08-26T08:54:54.452Z,27.60
2022-08-26T08:57:31.933Z,27.87
2022-08-26T09:00:11.950Z,27.48
2022-08-26T09:02:46.371Z,27.49
2022-08-26T09:05:28.070Z,27.49
2022-08-26T09:08:06.596Z,27.80
2022-08-26T09:10:39.804Z,27.77
2022-08-26T09:13:25.404Z,27.91
2022-08-26T09:16:20.281Z,28.25
2022-08-26T09:18:55.062Z,28.14
2022-08-26T09:21:25.279Z,28.19
2022-08-26T09:23:55.714Z,28.29
2022-08-26T09:26:29.177Z,28.27
2022-08-26T09:29:08.866Z,28.76
2022-08-26T09:31:39.196Z,28.86
2022-08-26T09:34:22.783Z,28.52
2022-08-26T09:36:58.600Z,28.25
2022-08-26T09:39:28.210Z,28.55
2022-08-26T09:42:02.918Z,28.65
2022-08-26T09:44:29.897Z,28.80
2022-08-26T09:47:02.015Z,28.79
2022-08-26T09:49:39.844Z,28.85
2022-08-26T09:52:17.632Z,28.62
2022-08-26T09:54:57.268Z,28.25
2022-08-26T09:57:29.071Z,28.21
2022-08-26T09:59:56.317Z,28.31
2022-08-26T10:02:32.203Z,28.26
2022-08-26T10:05:04.453Z,28.43
2022-08-26T10:07:50.870Z,28.48
2022-08-26T10:10:20.057Z,28.63
2022-08-26T10:12:58.889Z,28.37
2022-08-26T10:15:27.827Z,28.37
2022-08-26T10:18:24.760Z,28.83
2022-08-26T10:21:09.754Z,28.84
2022-08-26T10:23:58.269Z,28.39
2022-08-26T10:26:28.209Z,28.39
2022-08-26T10:29:08.914Z,28.71
2022-08-26T10:31:41.045Z,28.96
2022-08-26T10:34:12.529Z,28.57
2022-08-26T10:37:14.093Z,28.72
2022-08-26T10:40:07.635Z,29.34
2022-08-26T10:42:39.186Z,29.82
2022-08-26T10:45:19.811Z,30.04
2022-08-26T10:47:54.224Z,29.47
2022-08-26T10:50:37.302Z,29.65
2022-08-26T10:53:44.297Z,29.37
2022-08-26T10:56:29.516Z,28.23
2022-08-26T10:59:03.915Z,27.77
2022-08-26T11:01:43.287Z,28.01
2022-08-26T11:04:31.687Z,29.21
2022-08-26T11:07:39.684Z,29.55
2022-08-26T11:10:12.922Z,30.50
2022-08-26T11:12:39.544Z,30.55
2022-08-26T11:15:34.250Z,30.57
2022-08-26T11:18:04.257Z,29.81
2022-08-26T11:20:37.046Z,29.30
2022-08-26T11:23:24.118Z,28.99
2022-08-26T11:25:57.047Z,28.77
2022-08-26T11:28:44.791Z,28.43
2022-08-26T11:31:31.783Z,28.15
2022-08-26T11:34:03.563Z,27.96
2022-08-26T11:36:55.260Z,27.90
2022-08-26T11:39:29.456Z,28.10
2022-08-26T11:42:23.677Z,28.11
2022-08-26T11:44:57.951Z,28.11
2022-08-26T11:47:30.583Z,28.01
2022-08-26T11:50:13.402Z,27.88
2022-08-26T11:52:40.118Z,27.73
2022-08-26T11:55:12.124Z,27.56
2022-08-26T11:57:46.059Z,27.19
2022-08-26T12:00:26.545Z,26.88
2022-08-26T12:02:55.619Z,26.74
2022-08-26T12:05:38.295Z,26.63
2022-08-26T12:08:11.375Z,26.70
2022-08-26T12:10:38.423Z,26.74
2022-08-26T12:13:07.682Z,26.84
2022-08-26T12:15:35.826Z,27.01
2022-08-26T12:18:29.005Z,27.11
2022-08-26T12:20:58.687Z,27.27
2022-08-26T12:23:36.807Z,27.38
2022-08-26T12:26:29.489Z,27.37
2022-08-26T12:28:56.135Z,27.44
2022-08-26T12:31:35.085Z,27.38
2022-08-26T12:34:05.943Z,27.48
2022-08-26T12:36:37.810Z,28.22
2022-08-26T12:39:08.751Z,28.67
2022-08-26T12:41:55.749Z,28.53
2022-08-26T12:44:32.025Z,28.30
2022-08-26T12:47:20.428Z,28.03
2022-08-26T12:50:01.129Z,27.81
2022-08-26T12:52:30.408Z,27.46
2022-08-26T12:55:02.514Z,27.19
2022-08-26T12:57:36.030Z,26.99
2022-08-26T13:00:35.774Z,26.75
2022-08-26T13:03:03.548Z,26.51
2022-08-26T13:05:33.990Z,26.31
2022-08-26T13:08:25.878Z,26.18
2022-08-26T13:11:10.337Z,26.03
2022-08-26T13:13:37.525Z,25.87
2022-08-26T13:16:05.635Z,25.63
2022-08-26T13:18:32.705Z,25.26
2022-08-26T13:20:59.474Z,24.73
2022-08-26T13:23:26.230Z,24.05
2022-08-26T13:25:52.929Z,23.57
2022-08-26T13:28:19.753Z,23.07
2022-08-26T13:30:48.121Z,22.81
2022-08-26T13:33:16.757Z,22.66
2022-08-26T13:35:45.348Z,22.52
2022-08-26T13:38:20.588Z,22.39
2022-08-26T13:41:00.729Z,22.50
2022-08-26T13:43:27.729Z,22.53
2022-08-26T13:45:54.868Z,22.57
2022-08-26T13:48:23.591Z,22.71
2022-08-26T13:50:50.717Z,22.76
2022-08-26T13:53:18.801Z,22.80
2022-08-26T13:55:45.998Z,22.83
2022-08-26T13:58:13.672Z,22.89
2022-08-26T14:00:41.383Z,22.66
2022-08-26T14:03:13.090Z,22.54
2022-08-26T14:05:40.363Z,22.46
2022-08-26T14:08:07.496Z,22.31
2022-08-26T14:10:34.616Z,22.18
2022-08-26T14:13:01.393Z,22.24
2022-08-26T14:15:29.226Z,22.32
2022-08-26T14:17:56.056Z,22.33
2022-08-26T14:20:27.225Z,22.39
2022-08-26T14:23:13.138Z,22.46
2022-08-26T14:25:41.404Z,22.43
2022-08-26T14:28:08.221Z,22.45
2022-08-26T14:30:35.407Z,22.43
2022-08-26T14:33:02.218Z,22.25
2022-08-26T14:35:30.705Z,22.25
2022-08-26T14:37:58.132Z,22.44
2022-08-26T14:40:29.523Z,22.61
2022-08-26T14:42:58.872Z,22.67
2022-08-26T14:45:27.900Z,22.76
2022-08-26T14:47:56.743Z,22.76
2022-08-26T14:50:26.132Z,22.78
2022-08-26T14:53:11.178Z,22.62
2022-08-26T14:55:40.703Z,22.67
2022-08-26T14:58:07.651Z,22.78
2022-08-26T15:00:34.844Z,22.86
2022-08-26T15:03:01.959Z,22.88
2022-08-26T15:05:28.852Z,22.86
2022-08-26T15:07:55.700Z,22.95
2022-08-26T15:10:22.971Z,23.04
2022-08-26T15:12:49.804Z,23.11
2022-08-26T15:15:18.600Z,23.17
2022-08-26T15:17:45.537Z,23.23
2022-08-26T15:20:12.828Z,23.28
2022-08-26T15:22:40.039Z,23.28
2022-08-26T15:25:07.639Z,23.20
2022-08-26T15:27:34.365Z,23.18
2022-08-26T15:30:13.769Z,23.19
2022-08-26T15:32:40.555Z,23.22
2022-08-26T15:35:09.227Z,23.20
2022-08-26T15:37:36.318Z,23.22
2022-08-26T15:40:03.903Z,23.21
2022-08-26T15:42:30.746Z,23.19
2022-08-26T15:44:57.523Z,23.16
2022-08-26T15:47:24.503Z,23.16
2022-08-26T15:49:51.162Z,23.12
2022-08-26T15:52:19.551Z,23.09
2022-08-26T15:54:46.229Z,23.07
2022-08-26T15:57:15.314Z,22.97
2022-08-26T15:59:43.263Z,22.90
2022-08-26T16:02:10.641Z,22.97
2022-08-26T16:04:37.343Z,22.99
2022-08-26T16:07:04.414Z,22.99
2022-08-26T16:09:31.222Z,22.96
2022-08-26T16:11:58.152Z,22.87
2022-08-26T16:14:25.715Z,22.84
2022-08-26T16:16:52.566Z,22.81
2022-08-26T16:19:19.398Z,22.82
2022-08-26T16:21:46.498Z,22.81
2022-08-26T16:24:14.164Z,22.80
2022-08-26T16:26:42.552Z,22.83
2022-08-26T16:29:12.374Z,22.83
2022-08-26T16:31:39.369Z,22.85
2022-08-26T16:34:07.331Z,22.84
2022-08-26T16:36:34.933Z,22.80
2022-08-26T16:39:01.783Z,22.73
2022-08-26T16:41:30.871Z,22.73
2022-08-26T16:43:58.112Z,22.67
2022-08-26T16:46:26.334Z,22.57
2022-08-26T16:48:54.593Z,22.48
2022-08-26T16:51:23.086Z,22.44
2022-08-26T16:53:50.830Z,22.39
2022-08-26T16:56:24.120Z,22.36
2022-08-26T16:59:00.608Z,22.32
2022-08-26T17:01:27.374Z,22.29
2022-08-26T17:03:54.358Z,22.22
2022-08-26T17:06:21.084Z,22.15
2022-08-26T17:08:47.948Z,22.11
2022-08-26T17:11:15.329Z,22.05
2022-08-26T17:13:42.172Z,22.04
2022-08-26T17:16:10.950Z,22.03
2022-08-26T17:18:38.206Z,21.98
2022-08-26T17:21:10.234Z,21.96
2022-08-26T17:23:38.036Z,21.92
2022-08-26T17:26:05.368Z,21.89
2022-08-26T17:28:32.315Z,21.87
2022-08-26T17:31:00.323Z,21.82
2022-08-26T17:33:28.674Z,21.80
2022-08-26T17:35:56.050Z,21.79
2022-08-26T17:38:22.914Z,21.78
2022-08-26T17:40:50.180Z,21.79
2022-08-26T17:43:17.860Z,21.80
2022-08-26T17:45:44.652Z,21.73
2022-08-26T17:48:12.234Z,21.72
2022-08-26T17:50:41.300Z,21.68
2022-08-26T17:53:08.461Z,21.61
2022-08-26T17:55:41.862Z,21.52
2022-08-26T17:58:12.254Z,21.47
2022-08-26T18:00:44.745Z,21.49
2022-08-26T18:03:11.982Z,21.49
2022-08-26T18:05:38.745Z,21.49
2022-08-26T18:08:05.545Z,21.52
2022-08-26T18:10:32.620Z,21.63
2022-08-26T18:12:59.399Z,21.69
2022-08-26T18:15:26.144Z,21.68
2022-08-26T18:17:53.362Z,21.63
2022-08-26T18:20:20.703Z,21.57
2022-08-26T18:22:48.097Z,21.47
2022-08-26T18:25:16.620Z,21.35
2022-08-26T18:27:44.588Z,21.28
2022-08-26T18:30:16.796Z,21.13
2022-08-26T18:32:44.257Z,20.93
2022-08-26T18:35:11.955Z,20.65
2022-08-26T18:37:39.082Z,20.22
2022-08-26T18:40:08.587Z,19.95
2022-08-26T18:42:35.485Z,19.85
2022-08-26T18:45:03.162Z,19.75
2022-08-26T18:47:31.224Z,19.76
2022-08-26T18:49:57.941Z,19.78
2022-08-26T18:52:24.858Z,19.82
2022-08-26T18:54:51.620Z,19.81
2022-08-26T18:57:18.332Z,19.78
2022-08-26T18:59:45.015Z,19.72
2022-08-26T19:02:11.970Z,19.69
2022-08-26T19:04:39.202Z,19.67
2022-08-26T19:07:06.457Z,19.65
2022-08-26T19:09:33.774Z,19.60
2022-08-26T19:12:01.639Z,19.52
2022-08-26T19:14:28.676Z,19.55
2022-08-26T19:16:55.586Z,19.56
2022-08-26T19:19:25.629Z,19.49
2022-08-26T19:21:52.644Z,19.41
2022-08-26T19:24:20.316Z,19.42
2022-08-26T19:26:59.102Z,19.45
2022-08-26T19:29:29.719Z,19.42
2022-08-26T19:31:56.709Z,19.35
2022-08-26T19:34:24.157Z,19.30
2022-08-26T19:36:53.247Z,19.28
2022-08-26T19:39:21.145Z,19.27
2022-08-26T19:41:47.975Z,19.15
2022-08-26T19:44:53.076Z,19.16
2022-08-26T19:47:19.791Z,19.11
2022-08-26T19:49:46.473Z,19.07
2022-08-26T19:52:13.974Z,19.11
2022-08-26T19:54:40.999Z,19.15
2022-08-26T19:57:08.084Z,19.10
2022-08-26T19:59:36.260Z,19.12
2022-08-26T20:02:08.484Z,19.03
2022-08-26T20:04:37.087Z,18.99
2022-08-26T20:07:05.631Z,18.98
2022-08-26T20:09:34.147Z,18.99
2022-08-26T20:12:02.459Z,19.00
2022-08-26T20:14:30.003Z,19.01
2022-08-26T20:16:57.317Z,18.98
2022-08-26T20:19:42.788Z,18.97
2022-08-26T20:22:10.388Z,19.04
2022-08-26T20:24:37.200Z,19.03
2022-08-26T20:27:07.752Z,19.06
2022-08-26T20:29:35.946Z,18.98
2022-08-26T20:32:06.107Z,18.92
2022-08-26T20:34:33.057Z,18.84
2022-08-26T20:37:00.055Z,18.79
2022-08-26T20:39:29.576Z,18.76
2022-08-26T20:41:59.391Z,18.68
2022-08-26T20:44:26.345Z,18.68
2022-08-26T20:46:53.212Z,18.61
2022-08-26T20:49:19.945Z,18.59
2022-08-26T20:51:51.463Z,18.58
2022-08-26T20:54:22.976Z,18.57
2022-08-26T20:56:52.020Z,18.59
2022-08-26T20:59:21.088Z,18.54
2022-08-26T21:01:48.577Z,18.56
2022-08-26T21:04:18.693Z,18.53
2022-08-26T21:06:52.353Z,18.46
2022-08-26T21:09:22.402Z,18.45
2022-08-26T21:11:49.713Z,18.35
2022-08-26T21:14:17.440Z,18.27
2022-08-26T21:16:45.285Z,18.29
2022-08-26T21:19:15.152Z,18.23
2022-08-26T21:21:42.293Z,18.22
2022-08-26T21:24:09.299Z,18.27
2022-08-26T21:26:36.406Z,18.25
2022-08-26T21:29:04.149Z,18.19
2022-08-26T21:31:32.138Z,18.20
2022-08-26T21:33:59.369Z,18.19
2022-08-26T21:36:26.570Z,18.09
2022-08-26T21:38:56.134Z,18.01
2022-08-26T21:41:23.118Z,18.00
2022-08-26T21:43:51.540Z,18.01
2022-08-26T21:46:22.195Z,17.95
2022-08-26T21:48:58.341Z,17.96
2022-08-26T21:51:29.631Z,17.91
2022-08-26T21:53:57.771Z,17.83
2022-08-26T21:56:27.364Z,17.78
2022-08-26T21:58:55.772Z,17.74
2022-08-26T22:01:24.402Z,17.68
2022-08-26T22:03:52.690Z,17.75
2022-08-26T22:06:22.985Z,17.77
2022-08-26T22:08:50.061Z,17.82
2022-08-26T22:11:18.713Z,17.82
2022-08-26T22:13:46.775Z,17.81
2022-08-26T22:16:14.418Z,17.89
2022-08-26T22:18:43.864Z,17.90
2022-08-26T22:21:14.325Z,17.92
2022-08-26T22:23:41.439Z,17.89
2022-08-26T22:26:10.000Z,17.89
2022-08-26T22:28:37.452Z,17.91
2022-08-26T22:31:04.269Z,17.89
2022-08-26T22:33:30.999Z,17.85
2022-08-26T22:35:57.712Z,17.79
2022-08-26T22:38:24.829Z,17.77
2022-08-26T22:40:56.107Z,17.74
2022-08-26T22:43:28.867Z,17.75
2022-08-26T22:45:56.454Z,17.77
2022-08-26T22:48:25.081Z,17.79
2022-08-26T22:51:00.006Z,17.77
2022-08-26T22:53:27.490Z,17.75
2022-08-26T22:55:54.475Z,17.66
2022-08-26T22:58:28.032Z,17.63
2022-08-26T23:00:59.365Z,17.60
2022-08-26T23:03:27.006Z,17.59
2022-08-26T23:05:55.530Z,17.53
2022-08-26T23:08:23.469Z,17.49
2022-08-26T23:10:51.454Z,17.51
2022-08-26T23:13:19.872Z,17.51
2022-08-26T23:15:46.786Z,17.49
2022-08-26T23:18:15.295Z,17.42
2022-08-26T23:20:42.112Z,17.33
2022-08-26T23:23:09.482Z,17.23
2022-08-26T23:25:36.274Z,17.14
2022-08-26T23:28:03.529Z,17.06
2022-08-26T23:30:32.256Z,16.99
2022-08-26T23:32:59.276Z,17.00
2022-08-26T23:35:26.805Z,16.99
2022-08-26T23:37:53.783Z,16.96
2022-08-26T23:40:28.030Z,17.00
2022-08-26T23:42:56.291Z,16.96
2022-08-26T23:45:24.227Z,16.98
2022-08-26T23:47:51.196Z,16.97
2022-08-26T23:50:20.005Z,16.95
2022-08-26T23:53:05.749Z,16.98
2022-08-26T23:55:37.385Z,17.07
2022-08-26T23:58:05.157Z,17.12
